Coulterville, Illinois
Current Conditions -  °F | °C
As of 6:15 PM on Friday 21 Nov 2014 (Local Time) from KSAR Reporting Station
Overcast Overcast  
Wind Chill: 37°   Ceiling: 2500
Heat Index: 41°   Visibility: 10mi
Dew Point: 25°   Wind: 6mph
Humidity: 53%   Direction: 130°SE
Pressure: 30.32"   Gusts: NA
Location:  38.19°N, 89.61°W
Report Text: KSAR 220015Z AUTO 13005KT 10SM OVC025 05/M04 A3032 RMK AO2 T00501040
Loading
Personal Weather Stations






























Interactive Weather Map New forecast layout! Learn more

10-Day Weather Forecast

Advertisements
Track Severe Weather on mobile